OIKQ  Dayrestan Airport

Add Bookmark

Iran

Status
Operational
Latitude Longitude
26° 45' 16" N 55° 54' 8" E
26.754601 55.902401
Local (DST + 5) UTC (GMT + 4)
Dec 19, 2014 04:00 Dec 19, 2014 00:30
Sunrise-Sunset Local UTC
Begin Civil Twilight 06:03 02:33
Sunrise 06:28 02:58
Sunset 04:58 13:28
End Civil Twilight 05:24 13:54

Current Weather

METAR Observed MVFR
OIKQ 190000Z 00000KT 7000 NSC 16/13 Q1019 Fri, Dec 19, 2014 @ 00:00 UTC
(30 Minutes ago)
Marginal Visual Flight Rules
Wind Visibility Clouds Conditions
Calm 7000 meters
  • Clear skies
  • No significant weather
Temperatures Readings Precipitation
Current Temp 16°C (61°F)
Dewpoint 13°C (55°F)
Humidity 83%
Altimeter 30.09"Hg
Sea Level Pressure 1019mb
Field Elevation 39.37'
None Recorded

Additional weather within a 92.6km radius of OIKQ

Map ICAO Location
OIKB 69.8km N (042°)

24 Hour Weather History

Loading
-

24 Hour Weather Graphs

Loading
-

CheckWX.com is intended as a tool to help pilots better visualize weather data. It is not intended as a substitute for an official weather briefing obtained from a Flight Service Station. CheckWX.com does not meet the FAA requirements for an official pre-flight weather briefing. Therefore, it's important that pilots still call and obtain an official FSS pre-flight weather briefing.